Time;durP1;ratioP1;P1;durP2;ratioP2;P2;SDS_P1;SDS_P2;PMS_P1;PMS_P2;Temp;Humidity;BMP_temperature;BMP_pressure;BME280_temperature;BME280_humidity;BME280_pressure;Samples;Min_cycle;Max_cycle;Signal;HPM_P1;HPM_P2
2022/05/12 00:01:58;;;;;;;17.30;7.90;;;15.70;99.90;;;;;;5071886;28;20153;-37
2022/05/12 00:04:24;;;;;;;11.60;6.20;;;15.70;99.90;;;;;;5065720;28;20025;-37
2022/05/12 00:06:50;;;;;;;15.45;7.72;;;15.70;99.90;;;;;;5083388;28;20024;-37
2022/05/12 00:09:15;;;;;;;13.15;7.53;;;15.60;99.90;;;;;;5062666;28;20024;-38
2022/05/12 00:11:41;;;;;;;11.93;7.40;;;15.60;99.90;;;;;;5081494;28;20078;-37
2022/05/12 00:14:06;;;;;;;15.80;7.85;;;15.60;99.90;;;;;;5073106;28;20028;-37
2022/05/12 00:16:32;;;;;;;11.35;7.15;;;15.50;99.90;;;;;;5082736;28;20103;-37
2022/05/12 00:18:58;;;;;;;14.20;7.20;;;15.50;99.90;;;;;;5092199;28;20191;-37
2022/05/12 00:21:23;;;;;;;19.40;8.48;;;15.50;99.90;;;;;;5076990;28;20086;-38
2022/05/12 00:23:58;;;;;;;16.20;7.90;;;15.50;99.90;;;;;;5082421;28;20032;-45
2022/05/12 00:26:32;;;;;;;12.25;8.40;;;15.40;99.90;;;;;;5091995;28;20103;-37
2022/05/12 00:28:59;;;;;;;14.65;8.48;;;15.30;99.90;;;;;;5071673;28;20390;-37
2022/05/12 00:31:26;;;;;;;14.05;7.63;;;15.30;99.90;;;;;;5090428;28;20043;-37
2022/05/12 00:33:51;;;;;;;14.20;7.72;;;15.30;99.90;;;;;;5091145;28;20486;-37
2022/05/12 00:36:17;;;;;;;13.65;7.68;;;15.30;99.90;;;;;;5079635;28;20039;-37
2022/05/12 00:38:43;;;;;;;10.48;7.40;;;15.30;99.90;;;;;;5083034;28;20387;-37
2022/05/12 00:41:09;;;;;;;14.45;8.68;;;15.30;99.90;;;;;;5084624;28;20032;-37
2022/05/12 00:43:50;;;;;;;12.32;8.35;;;15.30;99.90;;;;;;5075765;28;20031;-37
2022/05/12 00:46:25;;;;;;;15.95;8.75;;;15.30;99.90;;;;;;5088941;28;20032;-37
2022/05/12 00:48:53;;;;;;;22.35;7.75;;;15.20;99.90;;;;;;5091460;28;20024;-38
2022/05/12 00:51:25;;;;;;;16.92;7.75;;;15.20;99.90;;;;;;5078154;28;20024;-37
2022/05/12 00:53:54;;;;;;;14.07;8.63;;;15.20;99.90;;;;;;5063395;28;20174;-37
2022/05/12 00:56:22;;;;;;;20.33;8.50;;;15.20;99.90;;;;;;5078828;28;20390;-37
2022/05/12 00:58:49;;;;;;;16.77;7.95;;;15.20;99.90;;;;;;5091025;28;20060;-37
2022/05/12 01:01:15;;;;;;;19.33;9.05;;;15.10;99.90;;;;;;5074577;28;20150;-37
2022/05/12 01:03:44;;;;;;;14.50;8.93;;;15.10;99.90;;;;;;5066115;28;20066;-37
2022/05/12 01:06:13;;;;;;;19.23;8.68;;;15.10;99.90;;;;;;5082606;28;20024;-37
2022/05/12 01:08:39;;;;;;;15.13;9.38;;;15.10;99.90;;;;;;5071921;28;20150;-37
2022/05/12 01:11:14;;;;;;;15.80;8.18;;;15.00;99.90;;;;;;5074447;28;20119;-37
2022/05/12 01:13:42;;;;;;;15.40;7.72;;;15.00;99.90;;;;;;5090365;28;20396;-37
2022/05/12 01:16:07;;;;;;;17.13;8.02;;;14.90;99.90;;;;;;5090984;28;20036;-37
2022/05/12 01:18:38;;;;;;;13.00;7.63;;;14.90;99.90;;;;;;5071457;28;20077;-37
2022/05/12 01:21:04;;;;;;;19.52;8.68;;;14.90;99.90;;;;;;5069473;28;20029;-45
2022/05/12 01:23:36;;;;;;;21.48;9.15;;;14.90;99.90;;;;;;5059551;28;20025;-45
2022/05/12 01:26:11;;;;;;;15.80;8.45;;;14.80;99.90;;;;;;5058892;28;20498;-45
2022/05/12 01:28:37;;;;;;;17.38;8.52;;;14.70;99.90;;;;;;5064207;28;20557;-45
2022/05/12 01:31:04;;;;;;;14.43;8.02;;;14.70;99.90;;;;;;5061308;28;20043;-37
2022/05/12 01:33:30;;;;;;;19.45;8.55;;;14.70;99.90;;;;;;5059735;28;20064;-37
2022/05/12 01:35:55;;;;;;;22.73;8.93;;;14.60;99.90;;;;;;5058557;28;20049;-37
2022/05/12 01:38:21;;;;;;;18.35;9.52;;;14.60;99.90;;;;;;5062475;28;20029;-37
2022/05/12 01:40:46;;;;;;;15.52;7.65;;;14.60;99.90;;;;;;5060486;28;20498;-37
2022/05/12 01:43:14;;;;;;;14.48;7.90;;;14.60;99.90;;;;;;5061399;28;20025;-37
2022/05/12 01:45:40;;;;;;;15.00;8.13;;;14.60;99.90;;;;;;5077628;28;20032;-37
2022/05/12 01:48:09;;;;;;;16.90;7.95;;;14.70;99.90;;;;;;5070078;28;20036;-37
2022/05/12 01:50:35;;;;;;;15.10;7.55;;;14.60;99.90;;;;;;5059114;28;20091;-37
2022/05/12 01:53:03;;;;;;;19.00;7.85;;;14.70;99.90;;;;;;5058970;28;20028;-37
2022/05/12 01:55:28;;;;;;;13.60;7.38;;;14.60;99.90;;;;;;5068298;28;20508;-37
2022/05/12 01:57:55;;;;;;;19.05;7.78;;;14.60;99.90;;;;;;5079842;28;20039;-37
2022/05/12 02:00:23;;;;;;;17.52;7.90;;;14.60;99.90;;;;;;5066436;28;20244;-37
2022/05/12 02:02:50;;;;;;;26.33;8.23;;;14.60;99.90;;;;;;5080871;28;20077;-37
2022/05/12 02:05:16;;;;;;;16.55;7.40;;;14.60;99.90;;;;;;5079587;28;20033;-45
2022/05/12 02:07:45;;;;;;;15.10;6.25;;;14.50;99.90;;;;;;5064332;28;20056;-37
2022/05/12 02:10:14;;;;;;;16.63;6.63;;;14.50;99.90;;;;;;5066621;28;20033;-37
2022/05/12 02:12:40;;;;;;;17.83;7.85;;;14.50;99.90;;;;;;5048961;28;20056;-37
2022/05/12 02:15:06;;;;;;;13.50;6.90;;;14.60;99.90;;;;;;5078787;28;20470;-37
2022/05/12 02:17:32;;;;;;;14.82;6.40;;;14.50;99.90;;;;;;5069909;28;20119;-37
2022/05/12 02:19:58;;;;;;;11.25;6.45;;;14.40;99.90;;;;;;5056088;28;20383;-37
2022/05/12 02:22:24;;;;;;;15.43;6.20;;;14.40;99.90;;;;;;5078693;28;20028;-45
2022/05/12 02:24:49;;;;;;;13.77;6.57;;;14.50;99.90;;;;;;5049642;28;20113;-45
2022/05/12 02:27:15;;;;;;;17.02;7.68;;;14.50;99.90;;;;;;5067044;28;20373;-46
2022/05/12 02:29:40;;;;;;;18.08;6.93;;;14.50;99.90;;;;;;5070635;28;20040;-46
2022/05/12 02:32:06;;;;;;;14.80;7.18;;;14.50;99.90;;;;;;5068803;28;20037;-45
2022/05/12 02:34:32;;;;;;;12.20;6.70;;;14.50;99.90;;;;;;5068193;28;20502;-45
2022/05/12 02:37:00;;;;;;;17.85;6.72;;;14.50;99.90;;;;;;5064453;28;20013;-45
2022/05/12 02:39:27;;;;;;;16.63;6.07;;;14.50;99.90;;;;;;5080782;28;20027;-45
2022/05/12 02:41:53;;;;;;;13.77;6.20;;;14.40;99.90;;;;;;5068745;28;20040;-45
2022/05/12 02:44:18;;;;;;;11.93;6.20;;;14.50;99.90;;;;;;5069209;28;20025;-45
2022/05/12 02:46:44;;;;;;;14.23;6.05;;;14.50;99.90;;;;;;5069080;28;20032;-46
2022/05/12 02:49:09;;;;;;;14.98;6.25;;;14.40;99.90;;;;;;5073857;28;20494;-46
2022/05/12 02:51:35;;;;;;;10.18;5.13;;;14.50;99.90;;;;;;5088723;28;20099;-45
2022/05/12 02:54:01;;;;;;;10.13;5.35;;;14.50;99.90;;;;;;5073438;28;20025;-46
2022/05/12 02:56:26;;;;;;;11.10;5.18;;;14.40;99.90;;;;;;5078487;28;20521;-45
2022/05/12 02:58:52;;;;;;;7.22;4.50;;;14.40;99.90;;;;;;5087834;28;20127;-45
2022/05/12 03:01:17;;;;;;;10.77;4.40;;;14.40;99.90;;;;;;5075594;28;20494;-45
2022/05/12 03:03:43;;;;;;;12.63;4.65;;;14.40;99.90;;;;;;5088571;28;20035;-45
2022/05/12 03:06:08;;;;;;;7.28;3.42;;;14.40;99.90;;;;;;5089034;28;20060;-45
2022/05/12 03:08:34;;;;;;;6.55;3.13;;;14.40;99.90;;;;;;5081123;28;20542;-45
2022/05/12 03:11:00;;;;;;;9.70;3.65;;;14.40;99.90;;;;;;5066808;28;20032;-45
2022/05/12 03:13:25;;;;;;;4.93;2.50;;;14.40;99.90;;;;;;5048152;28;20127;-45
2022/05/12 03:15:51;;;;;;;8.07;3.13;;;14.40;99.90;;;;;;5049033;28;20032;-47
2022/05/12 03:18:18;;;;;;;10.23;2.85;;;14.30;99.90;;;;;;5065652;28;20120;-45
2022/05/12 03:20:43;;;;;;;10.35;2.33;;;14.30;99.90;;;;;;5079660;28;20032;-46
2022/05/12 03:23:09;;;;;;;5.47;2.58;;;14.30;99.90;;;;;;5073740;28;20033;-45
2022/05/12 03:25:35;;;;;;;7.78;1.92;;;14.10;99.90;;;;;;5068798;28;20385;-45
2022/05/12 03:28:00;;;;;;;8.07;2.40;;;13.80;99.90;;;;;;5067086;28;20017;-45
2022/05/12 03:30:26;;;;;;;5.38;1.65;;;13.70;99.90;;;;;;5077264;28;20508;-45
2022/05/12 03:32:52;;;;;;;4.85;1.90;;;13.60;99.90;;;;;;5074733;28;20020;-46
2022/05/12 03:35:18;;;;;;;5.88;1.88;;;13.50;99.90;;;;;;5083120;28;20078;-45
2022/05/12 03:37:44;;;;;;;4.43;1.83;;;13.40;99.90;;;;;;5095679;28;20027;-45
2022/05/12 03:40:12;;;;;;;7.25;2.28;;;13.30;99.90;;;;;;5073119;28;20081;-45
2022/05/12 03:42:37;;;;;;;6.70;2.00;;;13.20;99.90;;;;;;5082689;28;20020;-45
2022/05/12 03:45:03;;;;;;;5.72;1.95;;;13.30;99.90;;;;;;5079464;28;20351;-45
2022/05/12 03:47:32;;;;;;;6.88;1.52;;;13.20;99.90;;;;;;5085309;28;20638;-46
2022/05/12 03:50:03;;;;;;;3.83;1.63;;;13.20;99.90;;;;;;5093744;28;20484;-45
2022/05/12 03:52:28;;;;;;;3.90;1.33;;;13.10;99.90;;;;;;5084373;28;20474;-45
2022/05/12 03:54:54;;;;;;;7.05;2.50;;;13.20;99.90;;;;;;5096043;28;20031;-46
2022/05/12 03:57:22;;;;;;;6.22;1.55;;;13.10;99.90;;;;;;5076547;28;20032;-45
2022/05/12 03:59:48;;;;;;;7.05;1.60;;;13.10;99.90;;;;;;5088671;28;20508;-45
2022/05/12 04:02:14;;;;;;;7.93;1.98;;;13.10;99.90;;;;;;5079366;28;20028;-45
2022/05/12 04:04:41;;;;;;;5.28;1.48;;;13.00;99.90;;;;;;5085992;28;20433;-45
2022/05/12 04:07:08;;;;;;;4.10;1.48;;;13.00;99.90;;;;;;5083613;28;20052;-46
2022/05/12 04:09:33;;;;;;;8.70;1.83;;;12.90;99.90;;;;;;5075151;28;20028;-37
2022/05/12 04:11:59;;;;;;;4.30;1.55;;;12.90;99.90;;;;;;5075880;28;20072;-37
2022/05/12 04:14:25;;;;;;;5.57;1.60;;;12.80;99.90;;;;;;5086573;28;20048;-37
2022/05/12 04:16:50;;;;;;;6.32;1.85;;;12.80;99.90;;;;;;5083450;28;20036;-37
2022/05/12 04:19:16;;;;;;;4.82;1.45;;;12.80;99.90;;;;;;5080842;28;20036;-37
2022/05/12 04:21:43;;;;;;;5.85;1.63;;;12.80;99.90;;;;;;5075693;28;20044;-37
2022/05/12 04:24:09;;;;;;;4.03;1.63;;;12.80;99.90;;;;;;5079632;28;20494;-37
2022/05/12 04:26:38;;;;;;;4.35;1.23;;;12.70;99.90;;;;;;5071011;28;20047;-37
2022/05/12 04:29:04;;;;;;;5.18;1.50;;;12.70;99.90;;;;;;5078806;28;20081;-37
2022/05/12 04:31:30;;;;;;;2.70;1.55;;;12.70;99.90;;;;;;5088860;28;20023;-37
2022/05/12 04:36:41;;;;;;;1.55;1.20;;;12.60;99.90;;;;;;5054700;28;20036;-37
2022/05/12 04:39:08;;;;;;;3.28;1.48;;;12.60;99.90;;;;;;5077254;28;20176;-37
2022/05/12 04:41:33;;;;;;;5.85;1.58;;;12.50;99.90;;;;;;5073466;28;20024;-37
2022/05/12 04:43:59;;;;;;;4.43;1.67;;;12.50;99.90;;;;;;5072312;28;20078;-37
2022/05/12 04:46:26;;;;;;;3.45;1.30;;;12.50;99.90;;;;;;5074860;28;20115;-37
2022/05/12 04:48:52;;;;;;;9.50;1.40;;;12.40;99.90;;;;;;5065422;28;20045;-38
2022/05/12 04:51:18;;;;;;;2.47;1.33;;;12.30;99.90;;;;;;5051671;28;20053;-37
2022/05/12 04:53:44;;;;;;;3.75;1.23;;;12.40;99.90;;;;;;5050099;28;20025;-37
2022/05/12 04:56:09;;;;;;;4.18;1.40;;;12.30;99.90;;;;;;5075807;28;20032;-37
2022/05/12 04:58:35;;;;;;;1.90;1.17;;;12.30;99.90;;;;;;5071866;28;20048;-37
2022/05/12 05:01:03;;;;;;;4.35;1.23;;;12.30;99.90;;;;;;5063092;28;20099;-37
2022/05/12 05:03:28;;;;;;;3.95;1.40;;;12.30;99.90;;;;;;5078407;28;20030;-37
2022/05/12 05:05:54;;;;;;;1.55;1.05;;;12.30;99.90;;;;;;5058704;28;20432;-37
2022/05/12 05:08:22;;;;;;;3.45;1.50;;;12.30;99.90;;;;;;5059394;28;20029;-37
2022/05/12 05:10:48;;;;;;;2.58;1.10;;;12.30;99.90;;;;;;5064095;28;20037;-37
2022/05/12 05:13:18;;;;;;;3.70;1.48;;;12.20;99.90;;;;;;5060284;28;20024;-36
2022/05/12 05:15:44;;;;;;;2.78;1.02;;;12.20;99.90;;;;;;5055888;28;20032;-36
2022/05/12 05:18:12;;;;;;;1.60;0.95;;;12.30;99.90;;;;;;5063762;28;20086;-36
2022/05/12 05:20:37;;;;;;;4.47;1.60;;;12.30;99.90;;;;;;5057082;28;20082;-37
2022/05/12 05:23:03;;;;;;;2.92;1.05;;;12.30;99.90;;;;;;5064173;28;20028;-37
2022/05/12 05:25:31;;;;;;;3.47;1.13;;;12.30;99.90;;;;;;5072579;28;20043;-36
2022/05/12 05:27:56;;;;;;;9.15;0.93;;;12.40;99.90;;;;;;5072663;28;20137;-36
2022/05/12 05:30:23;;;;;;;3.25;1.20;;;12.60;99.90;;;;;;5082340;28;20098;-36
2022/05/12 05:32:49;;;;;;;3.70;1.60;;;12.60;99.90;;;;;;5081978;28;20031;-36
2022/05/12 05:35:16;;;;;;;11.52;1.70;;;12.70;99.90;;;;;;5070405;28;20033;-36
2022/05/12 05:37:43;;;;;;;3.42;1.40;;;12.70;99.90;;;;;;5073133;28;20059;-37
2022/05/12 05:40:13;;;;;;;5.10;1.40;;;12.80;99.90;;;;;;5074006;28;20032;-37
2022/05/12 05:42:39;;;;;;;4.65;1.48;;;12.90;99.90;;;;;;5084688;28;20055;-36
2022/05/12 05:45:10;;;;;;;5.07;2.03;;;12.80;99.90;;;;;;5070118;28;20052;-37
2022/05/12 05:47:37;;;;;;;2.78;1.95;;;12.70;99.90;;;;;;5074934;28;20021;-37
2022/05/12 05:50:03;;;;;;;6.65;2.58;;;12.80;99.90;;;;;;5086005;28;20027;-37
2022/05/12 05:55:13;;;;;;;3.85;1.55;;;12.70;99.90;;;;;;5066573;28;20036;-36
2022/05/12 05:57:38;;;;;;;5.40;1.88;;;12.70;99.90;;;;;;5062128;28;20032;-36
2022/05/12 06:00:05;;;;;;;3.50;1.60;;;12.80;99.90;;;;;;5065769;28;20021;-37
2022/05/12 06:02:32;;;;;;;6.80;1.65;;;12.80;99.90;;;;;;5066965;28;20052;-36
2022/05/12 06:04:57;;;;;;;6.22;2.00;;;12.90;99.90;;;;;;5076429;28;20039;-36
2022/05/12 06:07:24;;;;;;;3.63;1.40;;;12.90;99.90;;;;;;5074977;28;20378;-36
2022/05/12 06:09:50;;;;;;;6.60;1.90;;;12.90;99.90;;;;;;5085767;28;20032;-36
2022/05/12 06:12:16;;;;;;;3.13;1.60;;;12.90;99.90;;;;;;5075828;28;20032;-36
2022/05/12 06:14:42;;;;;;;4.22;1.70;;;12.90;99.90;;;;;;5074860;28;20021;-36
2022/05/12 06:17:08;;;;;;;3.22;1.80;;;12.90;99.90;;;;;;5067585;28;20048;-36
2022/05/12 06:19:34;;;;;;;2.33;1.38;;;13.00;99.90;;;;;;5075239;28;20074;-36
2022/05/12 06:22:00;;;;;;;3.70;1.90;;;13.00;99.90;;;;;;5073069;28;20085;-36
2022/05/12 06:24:25;;;;;;;3.78;1.80;;;12.90;99.90;;;;;;5071976;28;20478;-36
2022/05/12 06:26:51;;;;;;;3.45;1.65;;;13.00;99.90;;;;;;5072941;28;20414;-36
2022/05/12 06:29:18;;;;;;;3.78;1.38;;;13.00;99.90;;;;;;5066268;28;20029;-36
2022/05/12 06:31:43;;;;;;;5.22;1.63;;;13.00;99.90;;;;;;5066679;28;20021;-37
2022/05/12 06:34:08;;;;;;;4.57;1.60;;;13.20;99.90;;;;;;5064859;28;20021;-37
2022/05/12 06:36:34;;;;;;;4.50;1.60;;;13.30;99.90;;;;;;5065538;28;20340;-37
2022/05/12 06:38:59;;;;;;;6.55;2.03;;;13.20;99.90;;;;;;5060156;28;20036;-37
2022/05/12 06:41:26;;;;;;;2.40;1.50;;;13.20;99.90;;;;;;5062268;28;20025;-37
2022/05/12 06:43:52;;;;;;;5.28;1.67;;;13.30;99.90;;;;;;5060165;28;20104;-37
2022/05/12 06:46:19;;;;;;;3.72;1.73;;;13.40;99.90;;;;;;5077646;28;20466;-37
2022/05/12 06:48:47;;;;;;;7.38;1.90;;;13.40;99.90;;;;;;5091248;28;20027;-37
2022/05/12 06:51:14;;;;;;;5.45;1.77;;;13.50;99.90;;;;;;5091064;28;20020;-37
2022/05/12 06:53:40;;;;;;;4.15;1.60;;;13.60;99.90;;;;;;5062085;28;20021;-37
2022/05/12 06:56:07;;;;;;;3.65;1.73;;;13.70;99.90;;;;;;5069396;28;20111;-37
2022/05/12 06:58:34;;;;;;;4.18;1.83;;;13.80;99.90;;;;;;5074763;28;20020;-37
2022/05/12 07:01:02;;;;;;;2.90;1.30;;;13.90;99.90;;;;;;5075699;28;20027;-37
2022/05/12 07:03:29;;;;;;;3.58;1.55;;;14.10;99.90;;;;;;5062334;28;20052;-37
2022/05/12 07:05:55;;;;;;;5.68;1.90;;;14.30;99.90;;;;;;5081183;28;20642;-37
2022/05/12 07:08:21;;;;;;;7.88;1.95;;;14.40;99.90;;;;;;5090792;28;20042;-37
2022/05/12 07:10:46;;;;;;;3.80;1.70;;;14.50;99.90;;;;;;5073812;28;20505;-37
2022/05/12 07:13:18;;;;;;;8.00;2.20;;;14.50;99.90;;;;;;5063965;28;20043;-37
2022/05/12 07:15:44;;;;;;;5.25;1.80;;;14.70;99.90;;;;;;5060698;28;20436;-37
2022/05/12 07:18:09;;;;;;;8.65;1.90;;;14.80;99.90;;;;;;5060081;28;20040;-37
2022/05/12 07:28:47;;;;;;;5.03;1.40;;;15.40;99.90;;;;;;5070654;28;20206;-37
2022/05/12 07:31:13;;;;;;;4.85;1.55;;;15.40;99.90;;;;;;5058499;28;20024;-37
2022/05/12 07:33:45;;;;;;;6.00;1.58;;;15.50;99.90;;;;;;5068186;28;20052;-37
2022/05/12 07:36:14;;;;;;;8.27;1.80;;;15.40;99.90;;;;;;5056385;28;20033;-37
2022/05/12 07:38:40;;;;;;;4.38;1.70;;;15.50;99.90;;;;;;5056179;28;20358;-37
2022/05/12 07:41:07;;;;;;;5.65;1.80;;;15.70;99.90;;;;;;5079994;28;20028;-37
2022/05/12 07:43:33;;;;;;;7.38;1.83;;;15.80;99.90;;;;;;5088012;28;20397;-37
2022/05/12 07:45:59;;;;;;;7.00;2.08;;;15.90;99.90;;;;;;5088941;28;20104;-37
2022/05/12 07:48:25;;;;;;;6.68;1.77;;;16.00;99.90;;;;;;5088518;28;20023;-37
2022/05/12 07:50:50;;;;;;;5.22;2.00;;;15.90;99.90;;;;;;5071002;28;20028;-37
2022/05/12 07:53:16;;;;;;;7.20;2.10;;;15.90;99.90;;;;;;5067425;28;20021;-37
2022/05/12 07:55:41;;;;;;;8.43;2.00;;;15.90;99.90;;;;;;5068146;28;20024;-37
2022/05/12 07:58:07;;;;;;;7.35;2.10;;;15.90;99.90;;;;;;5072511;28;20028;-37
2022/05/12 08:00:33;;;;;;;5.70;2.05;;;15.70;99.90;;;;;;5080155;28;20396;-37
2022/05/12 08:02:59;;;;;;;4.85;1.92;;;15.70;99.90;;;;;;5087819;28;20103;-38
2022/05/12 08:05:26;;;;;;;4.35;1.83;;;15.70;99.90;;;;;;5055625;28;20029;-37
2022/05/12 08:07:52;;;;;;;7.80;2.40;;;15.50;99.90;;;;;;5047997;28;20021;-37
2022/05/12 08:10:18;;;;;;;6.57;1.85;;;15.70;99.90;;;;;;5052816;28;20039;-37
2022/05/12 08:12:44;;;;;;;6.88;2.00;;;15.70;99.90;;;;;;5062162;28;20025;-37
2022/05/12 08:15:10;;;;;;;7.22;1.75;;;15.80;99.90;;;;;;5073084;28;20163;-37
2022/05/12 08:17:36;;;;;;;7.80;2.17;;;16.10;99.90;;;;;;5085662;28;20347;-37
2022/05/12 08:20:07;;;;;;;6.47;2.42;;;16.20;99.70;;;;;;5075252;28;20021;-37
2022/05/12 08:22:34;;;;;;;5.38;1.70;;;16.60;99.90;;;;;;5089874;28;20020;-38
2022/05/12 08:25:00;;;;;;;3.35;1.70;;;16.70;98.60;;;;;;5086588;28;20020;-38
2022/05/12 08:27:26;;;;;;;8.02;2.20;;;16.50;98.40;;;;;;5080476;28;20025;-37
2022/05/12 08:29:52;;;;;;;4.60;1.75;;;16.40;98.50;;;;;;5073422;28;20029;-37
2022/05/12 08:32:18;;;;;;;6.05;2.05;;;16.50;98.90;;;;;;5050837;28;20021;-38
2022/05/12 08:34:44;;;;;;;6.82;1.92;;;16.80;97.70;;;;;;5051706;28;20031;-37
2022/05/12 08:37:10;;;;;;;5.40;1.98;;;17.10;97.90;;;;;;5066454;28;20421;-37
2022/05/12 08:39:37;;;;;;;5.97;1.50;;;17.20;97.00;;;;;;5072143;28;20024;-38
2022/05/12 08:42:18;;;;;;;4.03;1.40;;;18.10;97.10;;;;;;5086818;28;20031;-38
2022/05/12 08:44:44;;;;;;;6.35;1.73;;;19.00;94.10;;;;;;5054489;28;20383;-38
2022/05/12 08:47:12;;;;;;;4.97;1.52;;;19.90;90.60;;;;;;5058652;28;20485;-38
2022/05/12 08:49:50;;;;;;;5.28;1.60;;;21.00;88.60;;;;;;5060569;28;20398;-38
2022/05/12 08:52:47;;;;;;;3.00;1.40;;;21.70;81.90;;;;;;5056105;28;20629;-38
2022/05/12 08:55:37;;;;;;;4.28;1.40;;;22.90;76.90;;;;;;5057446;28;20275;-36
2022/05/12 08:58:20;;;;;;;3.97;1.55;;;22.30;76.60;;;;;;5061307;28;20018;-36
2022/05/12 09:01:17;;;;;;;6.97;1.48;;;21.60;76.00;;;;;;5049626;28;20112;-38
2022/05/12 09:04:22;;;;;;;4.15;1.27;;;21.80;72.60;;;;;;5069062;28;20103;-36
2022/05/12 09:07:07;;;;;;;5.03;1.42;;;22.60;73.10;;;;;;5069601;28;20043;-36
2022/05/12 09:09:41;;;;;;;8.23;2.00;;;22.50;70.80;;;;;;5080591;28;20235;-36
2022/05/12 09:12:18;;;;;;;6.75;1.92;;;21.90;70.20;;;;;;5089278;28;20032;-35
2022/05/12 09:15:01;;;;;;;4.47;1.73;;;21.20;71.70;;;;;;5080066;28;20015;-35
2022/05/12 09:17:52;;;;;;;6.07;1.58;;;21.20;73.30;;;;;;5063763;28;20614;-38
2022/05/12 09:20:18;;;;;;;2.80;1.25;;;21.60;75.60;;;;;;5061744;28;20039;-36
2022/05/12 09:22:44;;;;;;;3.67;1.17;;;22.20;70.90;;;;;;5067155;28;20055;-36
2022/05/12 09:25:26;;;;;;;2.33;1.00;;;22.40;72.40;;;;;;5069147;28;20060;-38
2022/05/12 09:27:53;;;;;;;5.60;1.50;;;23.10;70.20;;;;;;5063008;28;20500;-38
2022/05/12 09:30:38;;;;;;;3.80;1.40;;;23.40;68.50;;;;;;5061265;28;20029;-38
2022/05/12 09:33:04;;;;;;;6.97;1.88;;;22.30;67.00;;;;;;5063800;28;20024;-38
2022/05/12 09:35:31;;;;;;;4.47;1.60;;;21.40;69.40;;;;;;5066900;28;20033;-38
2022/05/12 09:37:57;;;;;;;9.70;1.70;;;22.40;71.30;;;;;;5058221;28;20029;-38
2022/05/12 09:40:26;;;;;;;6.07;1.63;;;22.10;68.20;;;;;;5072420;28;20033;-38
2022/05/12 09:42:56;;;;;;;4.82;1.70;;;22.80;67.90;;;;;;5067950;28;20086;-38
2022/05/12 09:45:24;;;;;;;5.25;1.30;;;24.10;65.10;;;;;;5068767;28;20017;-36
2022/05/12 09:47:50;;;;;;;2.95;1.25;;;24.80;62.30;;;;;;5081939;28;20493;-39
2022/05/12 09:50:25;;;;;;;3.45;1.35;;;24.40;59.30;;;;;;5090293;28;20028;-36
2022/05/12 09:52:53;;;;;;;5.95;1.23;;;24.20;60.10;;;;;;5070623;28;20020;-36
2022/05/12 09:55:23;;;;;;;5.47;1.17;;;23.90;61.70;;;;;;5052621;28;20165;-36
2022/05/12 09:57:54;;;;;;;4.10;1.40;;;22.20;62.40;;;;;;5078193;28;20021;-36
2022/05/12 10:00:48;;;;;;;3.03;1.48;;;22.20;64.90;;;;;;5070473;28;20501;-36
2022/05/12 10:09:19;;;;;;;6.10;1.73;;;23.50;60.60;;;;;;5081336;28;20106;-37
2022/05/12 10:12:08;;;;;;;2.40;1.13;;;23.90;60.80;;;;;;5073256;28;20039;-36
2022/05/12 10:14:54;;;;;;;2.70;1.25;;;24.00;61.70;;;;;;5089813;28;20481;-37
2022/05/12 10:17:40;;;;;;;2.38;1.30;;;25.20;57.80;;;;;;5082483;28;20077;-37
2022/05/12 10:20:18;;;;;;;1.85;1.30;;;25.10;57.90;;;;;;5085847;28;20028;-36
2022/05/12 10:23:19;;;;;;;3.53;1.77;;;24.10;59.60;;;;;;5076343;28;20032;-36
2022/05/12 10:26:02;;;;;;;2.58;0.98;;;23.80;59.80;;;;;;5075416;28;20485;-36
2022/05/12 10:28:53;;;;;;;2.80;1.23;;;24.30;60.10;;;;;;5081535;28;20020;-36
2022/05/12 10:31:18;;;;;;;6.38;1.30;;;24.70;56.80;;;;;;5086505;28;20082;-36
2022/05/12 10:33:53;;;;;;;2.50;1.02;;;23.50;57.70;;;;;;5075164;28;20025;-36
2022/05/12 10:37:12;;;;;;;4.63;1.50;;;23.00;60.10;;;;;;5087189;28;20146;-36
2022/05/12 10:40:10;;;;;;;3.03;1.27;;;24.10;60.00;;;;;;5074288;28;20067;-37
2022/05/12 10:42:58;;;;;;;3.83;1.35;;;24.90;55.60;;;;;;5060058;28;20032;-37
2022/05/12 10:45:40;;;;;;;3.83;1.33;;;24.10;56.70;;;;;;5067021;28;20051;-37
2022/05/12 10:48:35;;;;;;;3.85;1.10;;;24.90;55.30;;;;;;5085704;28;20373;-36
2022/05/12 10:51:04;;;;;;;3.13;1.10;;;25.10;55.60;;;;;;5074264;28;20049;-37
2022/05/12 10:53:38;;;;;;;4.35;1.55;;;26.30;54.70;;;;;;5080184;28;20036;-37
2022/05/12 10:56:27;;;;;;;5.65;1.45;;;26.20;52.30;;;;;;5074047;28;20441;-37
2022/05/12 10:59:38;;;;;;;2.28;0.93;;;27.50;52.10;;;;;;5071741;28;20035;-37
2022/05/12 11:02:35;;;;;;;2.78;0.70;;;28.60;49.20;;;;;;5066686;28;20032;-37
2022/05/12 11:05:25;;;;;;;3.00;0.98;;;29.20;50.10;;;;;;5072468;28;20028;-38
2022/05/12 11:08:09;;;;;;;;;;;29.20;49.40;;;;;;5067829;28;20031;-37
2022/05/12 11:10:49;;;;;;;3.42;1.15;;;28.30;47.30;;;;;;5073828;28;19917;-38
2022/05/12 11:13:25;;;;;;;2.40;1.15;;;29.60;47.00;;;;;;5061244;28;20029;-38
2022/05/12 11:16:03;;;;;;;3.88;1.00;;;30.10;45.80;;;;;;5075112;28;20720;-38
2022/05/12 11:18:41;;;;;;;2.83;1.00;;;29.20;46.90;;;;;;5069126;28;20108;-38
2022/05/12 11:21:19;;;;;;;2.00;1.08;;;29.00;45.20;;;;;;5068743;28;20036;-38
2022/05/12 11:24:07;;;;;;;1.90;0.90;;;29.40;44.90;;;;;;5068365;28;20029;-38
2022/05/12 11:26:52;;;;;;;2.22;0.90;;;27.40;47.10;;;;;;5070487;28;20035;-38
2022/05/12 11:29:48;;;;;;;3.45;1.15;;;27.30;48.60;;;;;;5072240;28;20017;-38
2022/05/12 11:33:02;;;;;;;3.78;1.23;;;26.90;48.50;;;;;;5066863;28;20044;-37
2022/05/12 11:35:44;;;;;;;4.05;1.40;;;25.50;51.20;;;;;;5079645;28;20020;-37
2022/05/12 11:38:30;;;;;;;2.63;1.08;;;24.50;51.30;;;;;;5077404;28;20017;-37
2022/05/12 11:40:57;;;;;;;4.18;1.20;;;23.80;53.40;;;;;;5070942;28;20047;-37
2022/05/12 11:46:37;;;;;;;3.30;1.10;;;25.70;50.90;;;;;;5077521;28;20089;-38
2022/05/12 11:49:19;;;;;;;2.80;1.23;;;26.30;47.60;;;;;;5088524;28;20017;-38
2022/05/12 11:51:44;;;;;;;3.33;1.30;;;27.10;47.70;;;;;;5085856;28;20036;-38
2022/05/12 11:54:32;;;;;;;1.60;0.95;;;27.40;46.20;;;;;;5079652;28;20134;-38
2022/05/12 11:57:00;;;;;;;3.95;1.02;;;27.70;45.60;;;;;;5072224;28;20078;-38
2022/05/12 11:59:30;;;;;;;1.25;1.02;;;27.40;44.50;;;;;;5063239;28;20075;-38
2022/05/12 12:02:05;;;;;;;2.70;1.17;;;26.20;45.90;;;;;;5075698;28;20429;-47
2022/05/12 12:04:36;;;;;;;2.58;0.88;;;26.20;47.70;;;;;;5068837;28;20020;-46
2022/05/12 12:07:03;;;;;;;2.95;1.02;;;26.50;47.00;;;;;;5084059;28;20028;-47
2022/05/12 12:09:33;;;;;;;1.38;0.80;;;26.20;46.80;;;;;;5092475;28;20020;-45
2022/05/12 12:11:59;;;;;;;2.30;1.33;;;26.60;47.00;;;;;;5076780;28;20026;-45
2022/05/12 12:14:43;;;;;;;1.05;0.88;;;26.90;45.20;;;;;;5079659;28;20044;-48
2022/05/12 12:17:35;;;;;;;6.07;1.45;;;25.60;46.10;;;;;;5080409;28;20061;-45
2022/05/12 12:20:21;;;;;;;1.85;1.05;;;24.60;48.50;;;;;;5081589;28;20439;-45
2022/05/12 12:22:52;;;;;;;2.58;0.98;;;23.60;49.30;;;;;;5091842;28;20028;-45
2022/05/12 12:25:41;;;;;;;5.97;1.25;;;22.80;49.90;;;;;;5092157;28;20491;-45
2022/05/12 12:28:28;;;;;;;9.65;1.23;;;23.30;52.00;;;;;;5076128;28;20035;-46
2022/05/12 12:30:53;;;;;;;6.25;1.00;;;23.40;50.50;;;;;;5051364;28;20029;-46
2022/05/12 12:33:37;;;;;;;1.20;0.80;;;22.80;51.00;;;;;;5068982;28;20020;-45
2022/05/12 12:36:15;;;;;;;4.68;1.10;;;22.60;51.30;;;;;;5071994;28;20178;-45
2022/05/12 12:38:46;;;;;;;4.47;1.15;;;22.40;53.30;;;;;;5079771;28;20453;-45
2022/05/12 12:41:17;;;;;;;4.18;1.60;;;22.10;50.80;;;;;;5074103;28;20028;-46
2022/05/12 12:43:50;;;;;;;2.60;1.20;;;21.80;53.30;;;;;;5068141;28;20044;-44
2022/05/12 12:46:26;;;;;;;2.22;1.20;;;21.70;54.40;;;;;;5078071;28;20375;-48
2022/05/12 12:49:10;;;;;;;3.70;1.42;;;22.30;55.30;;;;;;5092046;28;20251;-45
2022/05/12 12:51:38;;;;;;;3.85;1.25;;;22.50;53.40;;;;;;5068661;28;20489;-46
2022/05/12 12:57:08;;;;;;;1.88;1.00;;;22.00;51.70;;;;;;5065977;28;20035;-45
2022/05/12 12:59:39;;;;;;;3.10;1.10;;;21.90;53.40;;;;;;5082970;28;20028;-44
2022/05/12 13:02:05;;;;;;;2.33;0.90;;;21.80;54.50;;;;;;5072555;28;20036;-47
2022/05/12 13:04:33;;;;;;;3.72;1.30;;;22.40;54.30;;;;;;5078209;28;20025;-46
2022/05/12 13:07:02;;;;;;;3.85;1.48;;;22.70;51.70;;;;;;5072543;28;20036;-45
2022/05/12 13:09:32;;;;;;;2.83;1.48;;;22.60;52.00;;;;;;5082572;28;20023;-45
2022/05/12 13:12:07;;;;;;;2.92;1.08;;;22.30;52.70;;;;;;5090814;28;20481;-45
2022/05/12 13:14:38;;;;;;;3.47;1.00;;;21.90;53.40;;;;;;5068067;28;20070;-45
2022/05/12 13:17:05;;;;;;;2.60;1.17;;;21.90;55.00;;;;;;5073477;28;20535;-44
2022/05/12 13:19:39;;;;;;;5.75;1.33;;;21.80;54.90;;;;;;5078880;28;20029;-44
2022/05/12 13:22:09;;;;;;;4.50;1.83;;;21.90;52.90;;;;;;5075721;28;20028;-44
2022/05/12 13:24:38;;;;;;;2.35;1.10;;;22.00;53.50;;;;;;5074760;28;20039;-46
2022/05/12 13:27:05;;;;;;;9.65;1.50;;;21.90;54.10;;;;;;5090738;28;20389;-44
2022/05/12 13:29:34;;;;;;;2.35;1.27;;;21.90;54.00;;;;;;5076807;28;20025;-47